Kennedale, Texas
Current Conditions -  °F | °C
As of 4:47 PM on Thursday 23 Oct 2014 (Local Time) from KFWS Reporting Station
Scattered Clouds Scattered Clouds  
Wind Chill: 81°   Ceiling: Unl
Heat Index: 81°   Visibility: 10mi
Dew Point: 57°   Wind: 8mph
Humidity: 45%   Direction: 130°SE
Pressure: 30.07"   Gusts: NA
Location:  32.65°N, 97.23°W
Report Text: KFWS 232147Z 13007KT 10SM SCT085 27/14 A3007
Loading
Personal Weather Stations






























Interactive Weather Map
Tropical Storm Tracking
New forecast layout! Learn more

10-Day Weather Forecast

Advertisements
Track Severe Weather on mobile